Kingsley, Michigan
Current Conditions -  °F | °C
As of 7:53 AM on Thursday 23 Oct 2014 (Local Time) from KTVC Reporting Station
Clear Clear  
Wind Chill: 32°   Ceiling: Unl
Heat Index: 32°   Visibility: 7mi
Dew Point: 29°   Wind: 0mph
Humidity: 88%   Direction: NA
Pressure: 30.22"   Gusts: NA
Location:  44.58°N, 85.54°W
Report Text: KTVC 231153Z 00000KT 7SM CLR 00/M02 A3022 RMK AO2 SLP240 I1001 I6002 T00001017 10011 21017 57003
Loading
Personal Weather Stations






























Interactive Weather Map
Tropical Storm Tracking
New forecast layout! Learn more

10-Day Weather Forecast

Advertisements
Track Severe Weather on mobile